Time;durP1;ratioP1;P1;durP2;ratioP2;P2;SDS_P1;SDS_P2;PMS_P1;PMS_P2;Temp;Humidity;BMP_temperature;BMP_pressure;BME280_temperature;BME280_humidity;BME280_pressure;Samples;Min_cycle;Max_cycle;Signal;HPM_P1;HPM_P2
2022/12/12 05:16:38;;;;;;;3.67;2.20;;;;;;;-145.06;100.00;60892.56;6032916;22;20074;-91
2022/12/12 05:19:20;;;;;;;2.83;2.10;;;;;;;-145.06;100.00;60892.56;6010829;23;20036;-91
2022/12/12 05:21:59;;;;;;;2.13;1.63;;;;;;;-145.06;100.00;60892.56;6010063;23;20091;-92
2022/12/12 05:24:41;;;;;;;2.88;1.85;;;;;;;-145.06;100.00;60892.56;6010400;23;20008;-92
2022/12/12 07:00:07;;;;;;;5.07;2.30;;;;;;;-145.06;100.00;60892.56;5868601;23;20003;-91
2022/12/12 08:07:02;;;;;;;2.60;1.58;;;;;;;-145.06;100.00;60892.56;6042966;22;20489;-92
2022/12/12 08:54:24;;;;;;;;;;;;;;;;;;;;;
2022/12/12 09:01:48;;;;;;;3.60;2.07;;;;;;;-145.06;100.00;60892.56;5888106;23;20006;-89
2022/12/12 09:05:35;;;;;;;3.33;2.20;;;;;;;-145.06;100.00;60892.56;6032546;23;20039;-90
2022/12/12 09:41:43;;;;;;;4.50;2.30;;;;;;;-145.06;100.00;60892.56;6008340;22;20013;-90
2022/12/12 09:45:33;;;;;;;;;;;;;;;;;;;;;
2022/12/12 09:52:54;;;;;;;;;;;;;;;;;;;;;
2022/12/12 20:16:17;;;;;;;7.83;4.17;;;;;;;-145.06;100.00;60892.56;6029760;22;20027;-89
2022/12/12 20:18:59;;;;;;;6.87;4.23;;;;;;;-145.06;100.00;60892.56;5980478;23;20036;-91
2022/12/12 20:22:25;;;;;;;7.73;4.20;;;;;;;-145.06;100.00;60892.56;5980708;23;20009;-89
2022/12/12 20:25:52;;;;;;;7.60;4.47;;;;;;;-145.06;100.00;60892.56;5971504;23;20012;-90
2022/12/12 20:28:31;;;;;;;8.53;4.73;;;;;;;-145.06;100.00;60892.56;5865127;23;20093;-91
2022/12/12 20:34:40;;;;;;;10.27;5.10;;;;;;;-145.06;100.00;60892.56;5862905;23;20010;-91
2022/12/12 20:37:47;;;;;;;7.77;4.70;;;;;;;-145.06;100.00;60892.56;5899253;23;20005;-92
2022/12/12 20:41:00;;;;;;;10.23;4.80;;;;;;;-145.06;100.00;60892.56;5981288;23;20000;-91
2022/12/12 20:43:40;;;;;;;9.00;5.13;;;;;;;-145.06;100.00;60892.56;5976507;23;20001;-89
2022/12/12 20:46:39;;;;;;;8.32;4.40;;;;;;;-145.06;100.00;60892.56;5978355;23;20431;-92
2022/12/12 20:49:21;;;;;;;7.47;4.18;;;;;;;-145.06;100.00;60892.56;5980209;23;20001;-89
2022/12/12 20:52:30;;;;;;;;;;;;;;;;;;;;;
2022/12/12 20:55:47;;;;;;;5.78;3.38;;;;;;;-145.06;100.00;60892.56;6010396;23;20008;-90
2022/12/12 20:58:33;;;;;;;7.47;3.87;;;;;;;-145.06;100.00;60892.56;5977737;23;20001;-90
2022/12/12 21:01:34;;;;;;;9.57;4.60;;;;;;;-145.06;100.00;60892.56;5977160;23;20012;-90
2022/12/12 21:04:34;;;;;;;10.37;4.87;;;;;;;-145.06;100.00;60892.56;5977226;23;20008;-91
2022/12/12 21:07:55;;;;;;;10.13;4.75;;;;;;;-145.06;100.00;60892.56;5978107;23;20036;-90
2022/12/12 21:10:41;;;;;;;8.63;4.57;;;;;;;-145.06;100.00;60892.56;6000173;23;20008;-89
2022/12/12 21:13:24;;;;;;;9.20;4.47;;;;;;;-145.06;100.00;60892.56;5977011;23;20001;-89
2022/12/12 21:16:09;;;;;;;8.80;4.73;;;;;;;-145.06;100.00;60892.56;5977093;23;20009;-91
2022/12/12 21:18:50;;;;;;;7.70;4.00;;;;;;;-145.06;100.00;60892.56;5977228;23;20008;-89
2022/12/12 21:21:29;;;;;;;8.37;4.20;;;;;;;-145.06;100.00;60892.56;5976891;23;20009;-90
2022/12/12 21:24:11;;;;;;;8.93;4.30;;;;;;;-145.06;100.00;60892.56;5976914;23;20032;-90
2022/12/12 21:26:50;;;;;;;9.30;4.67;;;;;;;-145.06;100.00;60892.56;5976790;23;20012;-89
2022/12/12 21:29:29;;;;;;;9.20;4.55;;;;;;;-145.06;100.00;60892.56;5976069;23;20032;-90
2022/12/12 21:32:08;;;;;;;7.43;3.83;;;;;;;-145.06;100.00;60892.56;5977746;23;20087;-90
2022/12/12 21:34:47;;;;;;;8.20;4.03;;;;;;;-145.06;100.00;60892.56;5976493;23;20004;-90
2022/12/12 21:37:26;;;;;;;6.47;3.70;;;;;;;-145.06;100.00;60892.56;5985119;23;20005;-90
2022/12/12 21:40:07;;;;;;;6.35;3.70;;;;;;;-145.06;100.00;60892.56;5985111;23;20135;-90
2022/12/12 21:42:46;;;;;;;5.80;3.23;;;;;;;-145.06;100.00;60892.56;5997605;23;20001;-90
2022/12/12 21:45:25;;;;;;;5.03;3.30;;;;;;;-145.06;100.00;60892.56;5977441;23;20016;-91
2022/12/12 21:48:04;;;;;;;5.97;3.00;;;;;;;-145.06;100.00;60892.56;5975255;23;20084;-90
2022/12/12 21:50:43;;;;;;;4.93;3.10;;;;;;;-145.06;100.00;60892.56;5974748;23;20028;-90
2022/12/12 21:53:34;;;;;;;4.55;2.85;;;;;;;-145.06;100.00;60892.56;5974731;23;20478;-89
2022/12/12 21:56:16;;;;;;;4.90;2.73;;;;;;;-145.06;100.00;60892.56;5976952;23;20008;-89
2022/12/12 21:58:56;;;;;;;5.87;3.03;;;;;;;-145.06;100.00;60892.56;5976863;23;20013;-89
2022/12/12 22:01:35;;;;;;;4.23;2.27;;;;;;;-145.06;100.00;60892.56;5976469;23;20009;-90
2022/12/12 22:04:14;;;;;;;6.03;2.63;;;;;;;-145.06;100.00;60892.56;5976193;23;20088;-89
2022/12/12 22:06:54;;;;;;;4.88;2.78;;;;;;;-145.06;100.00;60892.56;5976581;23;20016;-90
2022/12/12 22:09:33;;;;;;;4.05;2.83;;;;;;;-145.06;100.00;60892.56;5977401;23;20709;-89
2022/12/12 22:12:12;;;;;;;4.35;2.80;;;;;;;-145.06;100.00;60892.56;5976454;23;20076;-89
2022/12/12 22:14:51;;;;;;;5.00;2.80;;;;;;;-145.06;100.00;60892.56;6009455;23;20028;-89
2022/12/12 22:17:30;;;;;;;4.37;2.53;;;;;;;-145.06;100.00;60892.56;5997499;23;20011;-89
2022/12/12 22:20:09;;;;;;;3.72;2.35;;;;;;;-145.06;100.00;60892.56;6005213;23;20741;-89
2022/12/12 22:22:49;;;;;;;5.10;2.60;;;;;;;-145.06;100.00;60892.56;6006057;23;19996;-89
2022/12/12 22:25:28;;;;;;;4.80;2.78;;;;;;;-145.06;100.00;60892.56;6005643;23;20012;-88
2022/12/12 22:28:07;;;;;;;4.65;2.45;;;;;;;-145.06;100.00;60892.56;6005669;23;20003;-91
2022/12/12 22:30:46;;;;;;;4.38;2.42;;;;;;;-145.06;100.00;60892.56;6006201;23;20008;-89
2022/12/12 22:33:25;;;;;;;6.15;2.80;;;;;;;-145.06;100.00;60892.56;6006947;23;20478;-89
2022/12/12 22:36:07;;;;;;;5.25;2.58;;;;;;;-145.06;100.00;60892.56;6006277;22;20012;-90
2022/12/12 22:38:46;;;;;;;4.63;2.53;;;;;;;-145.06;100.00;60892.56;6005051;23;20004;-89
2022/12/12 22:41:26;;;;;;;4.57;2.60;;;;;;;-145.06;100.00;60892.56;6005094;23;20008;-88
2022/12/12 22:44:06;;;;;;;4.50;2.47;;;;;;;-145.06;100.00;60892.56;6005327;23;20003;-88
2022/12/12 22:46:47;;;;;;;3.85;2.60;;;;;;;-145.06;100.00;60892.56;6005301;23;20043;-90
2022/12/12 22:49:26;;;;;;;4.70;2.30;;;;;;;-145.06;100.00;60892.56;6005865;23;20007;-90
2022/12/12 22:52:05;;;;;;;4.00;2.47;;;;;;;-145.06;100.00;60892.56;6005652;23;20016;-88
2022/12/12 22:54:44;;;;;;;3.42;2.10;;;;;;;-145.06;100.00;60892.56;6038482;23;20000;-89
2022/12/12 22:57:23;;;;;;;3.23;2.17;;;;;;;-145.06;100.00;60892.56;6006000;23;20525;-89
2022/12/12 23:00:03;;;;;;;4.37;2.37;;;;;;;-145.06;100.00;60892.56;6006219;23;20008;-89
2022/12/12 23:02:42;;;;;;;3.27;2.17;;;;;;;-145.06;100.00;60892.56;6005926;23;20689;-88
2022/12/12 23:05:24;;;;;;;4.25;2.60;;;;;;;-145.06;100.00;60892.56;6007060;23;20570;-88
2022/12/12 23:08:04;;;;;;;4.10;2.53;;;;;;;-145.06;100.00;60892.56;6018324;23;20019;-89
2022/12/12 23:10:43;;;;;;;4.55;2.45;;;;;;;-145.06;100.00;60892.56;6027548;22;20044;-88
2022/12/12 23:13:22;;;;;;;5.63;2.92;;;;;;;-145.06;100.00;60892.56;6005885;23;20008;-88
2022/12/12 23:16:16;;;;;;;3.55;2.10;;;;;;;-145.06;100.00;60892.56;6002848;23;20339;-90
2022/12/12 23:18:56;;;;;;;3.97;2.50;;;;;;;-145.06;100.00;60892.56;5975929;23;20008;-89
2022/12/12 23:21:36;;;;;;;5.20;2.40;;;;;;;-145.06;100.00;60892.56;5976239;23;20009;-88
2022/12/12 23:24:15;;;;;;;4.93;2.53;;;;;;;-145.06;100.00;60892.56;5976683;23;20004;-88
2022/12/12 23:26:54;;;;;;;3.58;2.17;;;;;;;-145.06;100.00;60892.56;5975957;23;20012;-88
2022/12/12 23:29:33;;;;;;;5.43;2.60;;;;;;;-145.06;100.00;60892.56;5976136;23;20087;-89
2022/12/12 23:32:13;;;;;;;3.65;2.45;;;;;;;-145.06;100.00;60892.56;5976065;23;20309;-90
2022/12/12 23:34:52;;;;;;;3.80;2.40;;;;;;;-145.06;100.00;60892.56;5975882;23;20009;-88
2022/12/12 23:37:30;;;;;;;2.73;2.03;;;;;;;-145.06;100.00;60892.56;5976528;23;20236;-88
2022/12/12 23:40:10;;;;;;;3.78;2.63;;;;;;;-145.06;100.00;60892.56;5976050;23;20313;-88
2022/12/12 23:42:49;;;;;;;3.92;2.42;;;;;;;-145.06;100.00;60892.56;5975843;23;20001;-90
2022/12/12 23:45:28;;;;;;;3.25;2.20;;;;;;;-145.06;100.00;60892.56;6008007;23;20004;-89
2022/12/12 23:48:07;;;;;;;4.22;2.63;;;;;;;-145.06;100.00;60892.56;5975404;23;20008;-89
2022/12/12 23:50:46;;;;;;;4.20;2.37;;;;;;;-145.06;100.00;60892.56;5975575;23;20032;-90
2022/12/12 23:53:26;;;;;;;4.72;2.97;;;;;;;-145.06;100.00;60892.56;5975576;23;20719;-89
2022/12/12 23:56:05;;;;;;;5.75;2.67;;;;;;;-145.06;100.00;60892.56;5975500;23;20177;-88
2022/12/12 23:58:44;;;;;;;4.30;2.63;;;;;;;-145.06;100.00;60892.56;5974898;23;20088;-89
